Mattoon, IL

6:49 AM CDT on August 31, 2015 (GMT -0500)
Coles County Memorial | | Change Station
CLOSE
Current Station
Airport
Location: Mattoon,
Elevation: 722 ft
Nearby Weather Stations

Elev 722 ft 39.47 °N, 88.27 °W | Updated 56 minutes ago

Mostly Cloudy
Mostly Cloudy
70 °F
Feels Like 70 °F
N
6
Wind Variable Wind from SSW

Today
High -- | Low -- °F
--% Chance of Precip.
Yesterday
High -- | Low -- °F
Precip. -- in
6:20 AM 7:25 PM
Waning Gibbous, 96% visible
Pressure 30.04 in
Visibility 3.0 miles
Clouds Scattered Clouds 3300 ft
Scattered Clouds 4200 ft
Mostly Cloudy 4900 ft
Dew Point 67 °F
Humidity 90%
Rainfall 0.00 in
Snow Depth Not available.
UV 0 out of 12
Pollen 10.30 out of 12
Air Quality Not available.
Flu Activity Not available.
METAR KMTO 311053Z AUTO 20005KT 3SM BR SCT033 SCT042 BKN049 21/19 A3005 RMK AO2 SLP171 T02110194
Pressure 30.04 in
Visibility 3.0 miles
Clouds Scattered Clouds 3300 ft
Scattered Clouds 4200 ft
Mostly Cloudy 4900 ft
Dew Point 67 °F
Humidity 90%
Rainfall 0.00 in
Snow Depth Not available.
UV 0 out of 12
Pollen 10.30 out of 12
Air Quality Not available.
Flu Activity Not available.
METAR KMTO 311053Z AUTO 20005KT 3SM BR SCT033 SCT042 BKN049 21/19 A3005 RMK AO2 SLP171 T02110194

10-Day Weather Forecast

×

Almanac

Astronomy

Aug. 31, 2015 Rise Set
Actual Time
Civil Twilight
Nautical Twilight
Astronomical Twilight
Moon
Length of Visible Light
Length of Day
Tomorrow will be .
, % of the Moon is Illuminated

Today's Extremes

State Highs State Lows

Community

WunderPhotos

Upload Photos

1,851,219 photos uploaded!

WunderBlogs® & News

Nearby

Air Quality

  Air Quality AQ Index Pollutant
Not available.

Snow Depth

Station Depth Elevation

Earthquake Activity

City Distance Mag. Time & Date
Minimum magnitude displayed is 2.5.

Coastal Water Temperatures

Place Temperature

Stations

Nearby Weather Stations

Station Location Temp. Windchill Dew Point Humidity Wind Precip. Elev Updated Type